Time;durP1;ratioP1;P1;durP2;ratioP2;P2;SDS_P1;SDS_P2;PMS_P1;PMS_P2;Temp;Humidity;BMP_temperature;BMP_pressure;BME280_temperature;BME280_humidity;BME280_pressure;Samples;Min_cycle;Max_cycle;Signal;HPM_P1;HPM_P2
2023/02/01 05:06:15;;;;;;;2.10;1.88;;;5.50;99.90;;;;;;4976106;28;20227;-70
2023/02/01 05:08:41;;;;;;;1.77;1.60;;;5.50;99.90;;;;;;4978479;28;20181;-70
2023/02/01 05:13:47;;;;;;;2.03;1.80;;;5.50;99.90;;;;;;4978151;28;20173;-70
2023/02/01 05:13:52;;;;;;;2.15;1.70;;;5.50;99.90;;;;;;4977702;28;20214;-70
2023/02/01 05:16:18;;;;;;;2.40;1.80;;;5.50;99.90;;;;;;4978137;28;20252;-70
2023/02/01 05:18:43;;;;;;;2.10;1.63;;;5.40;99.90;;;;;;4978483;28;20184;-70
2023/02/01 05:21:09;;;;;;;1.63;1.53;;;5.40;99.90;;;;;;4977668;28;20212;-71
2023/02/01 05:24:09;;;;;;;1.00;1.00;;;5.40;99.90;;;;;;4978190;28;20201;-69
2023/02/01 05:26:23;;;;;;;1.50;1.40;;;5.40;99.90;;;;;;4978039;28;20186;-69
2023/02/01 05:28:49;;;;;;;1.50;1.40;;;5.50;99.90;;;;;;4977903;28;20192;-69
2023/02/01 05:31:14;;;;;;;1.73;1.63;;;5.50;99.90;;;;;;4977641;28;20525;-70
2023/02/01 05:33:40;;;;;;;1.87;1.77;;;5.50;99.90;;;;;;4976614;28;20229;-69
2023/02/01 05:36:06;;;;;;;1.70;1.40;;;5.50;99.90;;;;;;4977150;28;20630;-70
2023/02/01 05:38:32;;;;;;;2.17;1.90;;;5.50;99.90;;;;;;4977629;28;20208;-70
2023/02/01 05:40:57;;;;;;;1.83;1.73;;;5.60;99.90;;;;;;4977459;28;21013;-69
2023/02/01 05:43:23;;;;;;;1.80;1.70;;;5.60;99.90;;;;;;4976975;28;20416;-70
2023/02/01 05:45:49;;;;;;;1.60;1.50;;;5.60;99.90;;;;;;4977333;28;20192;-69
2023/02/01 05:48:14;;;;;;;1.13;1.03;;;5.60;99.90;;;;;;4976452;28;20527;-71
2023/02/01 05:50:40;;;;;;;1.10;1.10;;;5.60;99.90;;;;;;4977375;28;20174;-69
2023/02/01 05:53:05;;;;;;;2.13;2.00;;;5.70;99.90;;;;;;4976833;28;20530;-69
2023/02/01 05:55:32;;;;;;;1.60;1.43;;;5.70;99.90;;;;;;4977061;28;20190;-70
2023/02/01 05:57:57;;;;;;;1.83;1.67;;;5.70;99.90;;;;;;4977002;28;20179;-70
2023/02/01 06:00:23;;;;;;;1.80;1.40;;;5.70;99.90;;;;;;4976816;28;20183;-69
2023/02/01 06:02:49;;;;;;;2.33;1.40;;;5.70;99.90;;;;;;4975419;28;20187;-70
2023/02/01 06:05:14;;;;;;;1.37;1.23;;;5.70;99.90;;;;;;4976811;28;20207;-70
2023/02/01 06:07:40;;;;;;;1.77;1.67;;;5.80;99.90;;;;;;4977237;28;20236;-69
2023/02/01 06:10:06;;;;;;;1.83;1.40;;;5.70;99.90;;;;;;4975772;28;20183;-69
2023/02/01 06:12:32;;;;;;;1.75;1.13;;;5.70;99.90;;;;;;4976828;28;20191;-68
2023/02/01 06:14:58;;;;;;;1.10;1.10;;;5.70;99.90;;;;;;4976455;28;20597;-68
2023/02/01 06:17:24;;;;;;;2.60;1.40;;;5.70;99.90;;;;;;4976777;28;20924;-68
2023/02/01 06:19:50;;;;;;;1.43;1.40;;;5.70;99.90;;;;;;4976695;28;20179;-69
2023/02/01 06:22:16;;;;;;;0.93;0.93;;;5.70;99.90;;;;;;4976725;28;20865;-70
2023/02/01 06:24:41;;;;;;;2.37;1.30;;;5.70;99.90;;;;;;4976421;28;20217;-69
2023/02/01 06:27:09;;;;;;;1.50;1.40;;;5.70;99.90;;;;;;4977181;28;20428;-69
2023/02/01 06:29:34;;;;;;;1.45;1.35;;;5.70;99.90;;;;;;4976603;28;20181;-71
2023/02/01 06:32:00;;;;;;;2.37;1.43;;;5.70;99.90;;;;;;4976534;28;20178;-67
2023/02/01 06:34:26;;;;;;;2.33;2.13;;;5.70;99.90;;;;;;4976052;28;20605;-66
2023/02/01 06:36:51;;;;;;;1.60;1.50;;;5.70;99.90;;;;;;4976134;28;20173;-67
2023/02/01 06:39:17;;;;;;;1.53;1.43;;;5.70;99.90;;;;;;4976141;28;20546;-68
2023/02/01 06:41:49;;;;;;;2.00;1.80;;;5.70;99.90;;;;;;4976043;28;20285;-71
2023/02/01 06:44:15;;;;;;;3.40;1.95;;;5.70;99.90;;;;;;4958401;28;20281;-73
2023/02/01 06:46:41;;;;;;;1.83;1.25;;;5.80;99.90;;;;;;4975991;28;20538;-73
2023/02/01 06:49:06;;;;;;;1.70;1.60;;;5.80;99.90;;;;;;4976748;28;20188;-70
2023/02/01 06:51:32;;;;;;;1.73;1.40;;;5.80;99.90;;;;;;4976102;28;20584;-70
2023/02/01 06:53:58;;;;;;;1.40;1.30;;;5.80;99.90;;;;;;4975585;28;20197;-72
2023/02/01 06:56:24;;;;;;;1.33;1.23;;;5.80;99.90;;;;;;4975898;28;20170;-70
2023/02/01 06:58:50;;;;;;;4.93;2.22;;;5.80;99.90;;;;;;4975526;28;20422;-70
2023/02/01 07:01:15;;;;;;;1.57;1.47;;;5.80;99.90;;;;;;4975691;28;20202;-70
2023/02/01 07:03:41;;;;;;;1.30;1.23;;;5.80;99.90;;;;;;4975269;28;20422;-72
2023/02/01 07:06:09;;;;;;;2.60;1.70;;;5.90;99.90;;;;;;4975694;28;20191;-70
2023/02/01 07:08:36;;;;;;;1.52;1.42;;;5.90;99.90;;;;;;4974671;28;20258;-71
2023/02/01 07:11:09;;;;;;;2.28;1.27;;;6.00;99.90;;;;;;4975895;28;20965;-73
2023/02/01 07:13:35;;;;;;;2.83;1.45;;;6.00;99.90;;;;;;4975484;28;20219;-71
2023/02/01 07:16:02;;;;;;;1.50;1.40;;;6.00;99.90;;;;;;4975685;28;20178;-70
2023/02/01 07:18:30;;;;;;;2.20;2.00;;;6.00;99.90;;;;;;4975824;28;20501;-72
2023/02/01 07:20:56;;;;;;;1.17;1.17;;;6.00;99.90;;;;;;4975598;28;20227;-71
2023/02/01 07:23:22;;;;;;;2.17;1.60;;;6.00;99.90;;;;;;4975391;28;20171;-70
2023/02/01 07:25:48;;;;;;;5.32;1.60;;;6.00;99.90;;;;;;4975434;28;20188;-69
2023/02/01 07:28:14;;;;;;;1.60;1.50;;;6.00;99.90;;;;;;4975381;28;20172;-71
2023/02/01 07:30:40;;;;;;;2.47;1.45;;;6.10;99.90;;;;;;4975749;28;20170;-71
2023/02/01 07:33:07;;;;;;;1.50;1.40;;;6.10;99.90;;;;;;4975247;28;20227;-69
2023/02/01 07:35:32;;;;;;;2.55;1.70;;;6.10;99.90;;;;;;4975560;28;20198;-70
2023/02/01 07:37:58;;;;;;;1.73;1.60;;;6.10;99.90;;;;;;4974499;28;20176;-71
2023/02/01 07:40:28;;;;;;;2.27;2.07;;;6.10;99.90;;;;;;4975211;28;20169;-71
2023/02/01 07:42:55;;;;;;;1.55;1.45;;;6.10;99.90;;;;;;4973669;28;20413;-71
2023/02/01 07:45:21;;;;;;;3.20;1.50;;;6.10;99.90;;;;;;4975079;28;20198;-72
2023/02/01 07:47:47;;;;;;;2.33;1.40;;;6.20;99.90;;;;;;4975213;28;20167;-72
2023/02/01 07:50:12;;;;;;;2.20;1.93;;;6.20;99.90;;;;;;4974985;28;20395;-71
2023/02/01 07:52:39;;;;;;;2.20;1.77;;;6.20;99.90;;;;;;4975090;28;20287;-70
2023/02/01 07:55:06;;;;;;;1.90;1.70;;;6.30;99.90;;;;;;4974891;28;20185;-72
2023/02/01 07:57:31;;;;;;;1.48;1.35;;;6.30;99.90;;;;;;4974724;28;20299;-70
2023/02/01 08:02:41;;;;;;;2.30;2.10;;;6.30;99.90;;;;;;4974668;28;20221;-71
2023/02/01 08:05:07;;;;;;;2.30;1.60;;;6.30;99.90;;;;;;4974419;28;20303;-71
2023/02/01 08:07:33;;;;;;;1.63;1.40;;;6.40;99.90;;;;;;4973626;28;20201;-71
2023/02/01 08:09:59;;;;;;;1.50;1.40;;;6.40;99.90;;;;;;4974947;28;20626;-71
2023/02/01 08:12:26;;;;;;;1.85;1.30;;;6.30;99.90;;;;;;4974389;28;20183;-70
2023/02/01 08:14:53;;;;;;;3.08;1.70;;;6.30;99.90;;;;;;4974191;28;20581;-71
2023/02/01 08:17:19;;;;;;;1.83;1.73;;;6.30;99.90;;;;;;4974567;28;20178;-71
2023/02/01 08:19:44;;;;;;;2.73;2.47;;;6.40;99.90;;;;;;4974785;28;20266;-71
2023/02/01 08:22:10;;;;;;;1.73;1.63;;;6.40;99.90;;;;;;4974411;28;20458;-71
2023/02/01 08:24:39;;;;;;;1.97;1.83;;;6.40;99.90;;;;;;4974146;28;20223;-71
2023/02/01 08:27:04;;;;;;;1.63;1.52;;;6.50;99.90;;;;;;4974576;28;20530;-71
2023/02/01 08:29:30;;;;;;;1.57;1.47;;;6.50;99.90;;;;;;4974789;28;20164;-71
2023/02/01 08:31:56;;;;;;;2.10;1.90;;;6.60;99.90;;;;;;4974469;28;20179;-71
2023/02/01 08:34:21;;;;;;;2.27;2.07;;;6.70;99.90;;;;;;4973848;28;20200;-72
2023/02/01 08:36:47;;;;;;;1.43;1.37;;;6.80;99.90;;;;;;4974464;28;20410;-72
2023/02/01 08:39:13;;;;;;;2.20;2.00;;;6.90;99.90;;;;;;4974437;28;20504;-71
2023/02/01 08:41:38;;;;;;;2.73;1.83;;;7.00;99.90;;;;;;4974149;28;20203;-72
2023/02/01 08:44:04;;;;;;;2.70;1.60;;;7.10;99.90;;;;;;4973975;28;20188;-72
2023/02/01 08:46:30;;;;;;;2.83;1.30;;;7.10;99.90;;;;;;4976929;28;20200;-72
2023/02/01 08:48:55;;;;;;;1.37;1.30;;;7.20;99.90;;;;;;4974539;28;20765;-71
2023/02/01 08:51:22;;;;;;;2.33;1.83;;;7.20;99.90;;;;;;4974412;28;20645;-70
2023/02/01 08:53:49;;;;;;;2.10;2.00;;;7.20;99.90;;;;;;4972675;28;20180;-72
2023/02/01 08:56:16;;;;;;;1.85;1.75;;;7.20;99.90;;;;;;4974131;28;20187;-72
2023/02/01 08:58:42;;;;;;;2.13;2.03;;;7.20;99.90;;;;;;4973094;28;20290;-72
2023/02/01 09:01:14;;;;;;;5.50;2.30;;;7.20;99.90;;;;;;4970302;28;20712;-72
2023/02/01 09:03:40;;;;;;;3.85;3.55;;;7.20;99.90;;;;;;4954880;28;20418;-72
2023/02/01 09:06:08;;;;;;;1.57;1.50;;;7.20;99.90;;;;;;4954859;28;20550;-67
2023/02/01 09:08:35;;;;;;;1.60;1.50;;;7.10;99.90;;;;;;4954699;28;20716;-70
2023/02/01 09:11:03;;;;;;;1.85;1.75;;;7.10;99.90;;;;;;4963758;28;20191;-70
2023/02/01 09:13:29;;;;;;;1.92;1.83;;;7.10;99.90;;;;;;4973689;28;20171;-70
2023/02/01 09:15:55;;;;;;;4.00;1.95;;;7.10;99.90;;;;;;4974245;28;20199;-66
2023/02/01 09:18:20;;;;;;;8.93;3.40;;;7.10;99.90;;;;;;4974204;28;20177;-68
2023/02/01 09:20:46;;;;;;;1.77;1.67;;;7.10;99.90;;;;;;4974300;28;20707;-70
2023/02/01 09:23:12;;;;;;;3.57;2.23;;;7.10;99.90;;;;;;4975067;28;20254;-70
2023/02/01 09:25:38;;;;;;;1.60;1.50;;;7.20;99.90;;;;;;4977472;28;20196;-69
2023/02/01 09:28:05;;;;;;;1.77;1.70;;;7.20;99.90;;;;;;4977679;28;20183;-73
2023/02/01 09:30:32;;;;;;;2.25;1.70;;;7.20;99.90;;;;;;4977614;28;20652;-72
2023/02/01 09:32:58;;;;;;;4.35;2.05;;;7.20;99.90;;;;;;4977285;28;20191;-71
2023/02/01 09:35:24;;;;;;;7.27;2.23;;;7.20;99.90;;;;;;4977519;28;20203;-73
2023/02/01 09:37:52;;;;;;;3.20;2.00;;;7.20;99.90;;;;;;4976495;28;20227;-71
2023/02/01 09:40:19;;;;;;;1.60;1.60;;;7.20;99.90;;;;;;4976421;28;20183;-70
2023/02/01 09:43:07;;;;;;;2.80;1.77;;;7.30;99.90;;;;;;4977139;28;20219;-72
2023/02/01 09:45:58;;;;;;;5.13;2.42;;;7.40;99.90;;;;;;4977382;28;20215;-71
2023/02/01 09:48:28;;;;;;;4.10;2.05;;;7.50;99.90;;;;;;4976328;28;20175;-72
2023/02/01 09:50:59;;;;;;;3.22;2.22;;;7.60;99.90;;;;;;4977579;28;20227;-71
2023/02/01 09:53:30;;;;;;;1.50;1.40;;;7.70;99.90;;;;;;4977106;28;20179;-71
2023/02/01 09:56:20;;;;;;;2.67;1.95;;;7.70;99.90;;;;;;4977356;28;20500;-72
2023/02/01 09:59:04;;;;;;;2.70;1.75;;;7.70;99.90;;;;;;4957968;28;20185;-72
2023/02/01 10:01:31;;;;;;;4.03;1.48;;;7.80;99.90;;;;;;4958037;28;20224;-73
2023/02/01 10:04:08;;;;;;;4.72;2.13;;;7.80;99.90;;;;;;4957364;28;20622;-68
2023/02/01 10:06:56;;;;;;;2.35;1.33;;;7.70;99.90;;;;;;4957528;28;20697;-67
2023/02/01 10:09:39;;;;;;;20.02;2.85;;;7.80;99.90;;;;;;4957613;28;20224;-67
2023/02/01 10:12:28;;;;;;;2.47;1.90;;;7.90;99.90;;;;;;4957373;28;20196;-66
2023/02/01 10:15:00;;;;;;;2.10;1.40;;;7.80;99.90;;;;;;4958941;28;20250;-67
2023/02/01 10:17:47;;;;;;;5.78;2.30;;;7.90;99.90;;;;;;4958226;28;20227;-65
2023/02/01 10:20:31;;;;;;;3.38;2.05;;;7.90;99.90;;;;;;4957094;28;20177;-67
2023/02/01 10:23:25;;;;;;;2.10;1.77;;;8.10;99.90;;;;;;4956906;28;20196;-67
2023/02/01 10:25:59;;;;;;;2.35;1.88;;;8.20;99.90;;;;;;4957577;28;20331;-70
2023/02/01 10:28:25;;;;;;;1.35;1.25;;;8.50;99.90;;;;;;4976820;28;20168;-67
2023/02/01 10:30:56;;;;;;;2.85;1.65;;;8.70;99.90;;;;;;4976305;28;20171;-68
2023/02/01 10:33:31;;;;;;;1.95;1.63;;;8.80;99.90;;;;;;4975533;28;20172;-68
2023/02/01 10:36:13;;;;;;;2.85;1.15;;;8.90;99.90;;;;;;4974744;28;20231;-68
2023/02/01 10:38:39;;;;;;;2.78;1.20;;;9.10;99.90;;;;;;4975911;28;20251;-69
2023/02/01 10:41:24;;;;;;;10.10;1.73;;;9.20;99.90;;;;;;4975778;28;20417;-69
2023/02/01 10:43:55;;;;;;;2.55;1.30;;;9.20;99.90;;;;;;4975636;28;20462;-68
2023/02/01 10:46:23;;;;;;;3.90;2.65;;;9.20;99.90;;;;;;4976122;28;20562;-69
2023/02/01 10:48:52;;;;;;;2.25;1.25;;;9.00;99.90;;;;;;4974865;28;20698;-69
2023/02/01 10:51:22;;;;;;;1.55;1.48;;;8.90;99.90;;;;;;4976329;28;20190;-68
2023/02/01 10:53:56;;;;;;;2.83;1.55;;;8.80;99.90;;;;;;4975835;28;20677;-68
2023/02/01 10:56:24;;;;;;;3.13;1.45;;;8.60;99.90;;;;;;4976207;28;20179;-69
2023/02/01 10:58:51;;;;;;;4.03;1.80;;;8.50;99.90;;;;;;4974873;28;20184;-69
2023/02/01 11:01:24;;;;;;;2.20;1.33;;;8.40;99.90;;;;;;4976081;28;20194;-68
2023/02/01 11:03:55;;;;;;;1.98;1.40;;;8.30;99.90;;;;;;4975400;28;20534;-67
2023/02/01 11:06:36;;;;;;;3.97;1.80;;;8.30;99.90;;;;;;4975839;28;20188;-67
2023/02/01 11:09:16;;;;;;;2.15;1.00;;;8.20;99.90;;;;;;4976050;28;20218;-67
2023/02/01 11:11:48;;;;;;;2.17;1.38;;;8.20;99.90;;;;;;4975621;28;20198;-68
2023/02/01 11:14:35;;;;;;;12.73;1.67;;;8.20;99.90;;;;;;4975314;28;20211;-68
2023/02/01 11:17:19;;;;;;;1.85;1.55;;;8.20;99.90;;;;;;4975725;28;20255;-68
2023/02/01 11:19:46;;;;;;;1.42;1.33;;;8.20;99.90;;;;;;4974802;28;20522;-69
2023/02/01 11:22:13;;;;;;;5.07;1.75;;;8.20;99.90;;;;;;4975659;28;20231;-69
2023/02/01 11:24:40;;;;;;;1.27;1.17;;;8.20;99.90;;;;;;4975150;28;20195;-69
2023/02/01 11:27:22;;;;;;;3.17;1.85;;;8.20;99.90;;;;;;4975797;28;20178;-69
2023/02/01 11:29:52;;;;;;;5.10;1.70;;;8.30;99.90;;;;;;4974295;28;20187;-68
2023/02/01 11:32:20;;;;;;;3.90;1.30;;;8.20;99.90;;;;;;4975389;28;20182;-68
2023/02/01 11:34:59;;;;;;;1.25;1.15;;;8.30;99.90;;;;;;4974919;28;20685;-69
2023/02/01 11:37:29;;;;;;;2.13;1.92;;;8.30;99.90;;;;;;4974375;28;20218;-68
2023/02/01 11:39:58;;;;;;;1.98;1.48;;;8.40;99.90;;;;;;4975129;28;20650;-67
2023/02/01 11:42:24;;;;;;;7.78;2.10;;;8.40;99.90;;;;;;4973988;28;20645;-67
2023/02/01 11:44:50;;;;;;;2.80;1.25;;;8.40;99.90;;;;;;4973512;28;20196;-67
2023/02/01 11:47:25;;;;;;;2.77;1.40;;;8.50;99.90;;;;;;4974822;28;20642;-68
2023/02/01 11:50:08;;;;;;;4.38;1.40;;;8.50;99.90;;;;;;4975535;28;20802;-67
2023/02/01 11:52:49;;;;;;;1.10;1.00;;;8.50;99.90;;;;;;4977178;28;20174;-67
2023/02/01 11:55:40;;;;;;;1.77;1.38;;;8.50;99.90;;;;;;4976081;28;20211;-68
2023/02/01 11:58:11;;;;;;;2.55;1.50;;;8.50;99.90;;;;;;4976283;28;20172;-69
2023/02/01 12:01:02;;;;;;;2.00;1.20;;;8.50;99.90;;;;;;4975567;28;20176;-68
2023/02/01 12:03:59;;;;;;;1.48;0.93;;;8.50;99.90;;;;;;4974975;28;20183;-69
2023/02/01 12:06:57;;;;;;;1.85;1.15;;;8.40;99.90;;;;;;4975071;28;20180;-68
2023/02/01 12:09:34;;;;;;;2.10;1.40;;;8.40;99.90;;;;;;4975282;28;20650;-68
2023/02/01 12:12:11;;;;;;;2.95;1.40;;;8.50;99.90;;;;;;4975215;28;20542;-66
2023/02/01 12:14:43;;;;;;;6.03;1.70;;;8.40;99.90;;;;;;4974436;28;20195;-67
2023/02/01 12:17:27;;;;;;;1.35;0.90;;;8.40;99.90;;;;;;4968275;28;20175;-68
2023/02/01 12:20:34;;;;;;;1.38;1.27;;;8.40;99.90;;;;;;4965525;28;20173;-68
2023/02/01 12:23:21;;;;;;;1.48;1.38;;;8.30;99.90;;;;;;4963273;28;20330;-70
2023/02/01 12:26:08;;;;;;;2.53;1.27;;;8.20;99.90;;;;;;4962856;28;20297;-65
2023/02/01 12:28:58;;;;;;;0.82;0.82;;;8.20;99.90;;;;;;4960372;28;20534;-68
2023/02/01 12:31:43;;;;;;;2.55;1.30;;;8.10;99.90;;;;;;4963062;28;20195;-68
2023/02/01 12:34:20;;;;;;;2.50;2.40;;;8.00;99.90;;;;;;4964037;28;20208;-67
2023/02/01 12:36:57;;;;;;;2.45;1.58;;;8.00;99.90;;;;;;4970043;28;20262;-67
2023/02/01 12:39:45;;;;;;;7.22;1.45;;;8.00;99.90;;;;;;4974966;28;20214;-68
2023/02/01 12:42:52;;;;;;;2.03;1.40;;;8.00;99.90;;;;;;4974236;28;20635;-68
2023/02/01 12:45:47;;;;;;;2.97;1.13;;;8.00;99.90;;;;;;4972579;28;20286;-68
2023/02/01 12:48:28;;;;;;;8.13;1.60;;;8.10;99.90;;;;;;4967470;28;20180;-68
2023/02/01 12:50:59;;;;;;;2.40;1.15;;;8.00;99.90;;;;;;4975736;28;20634;-67
2023/02/01 12:53:38;;;;;;;4.13;1.85;;;8.00;99.90;;;;;;4973763;28;20183;-68
2023/02/01 12:56:11;;;;;;;1.30;1.23;;;8.00;99.90;;;;;;4974780;28;20258;-69
2023/02/01 12:59:00;;;;;;;1.10;1.10;;;7.90;99.90;;;;;;4978681;28;20179;-70
2023/02/01 13:01:40;;;;;;;2.40;1.45;;;7.80;99.90;;;;;;4978377;28;20199;-67
2023/02/01 13:04:18;;;;;;;2.28;1.40;;;7.70;99.90;;;;;;4978009;28;20565;-68
2023/02/01 13:06:58;;;;;;;4.78;1.30;;;7.70;99.90;;;;;;4977898;28;20230;-68
2023/02/01 13:09:33;;;;;;;1.83;1.42;;;7.70;99.90;;;;;;4978297;28;20179;-69
2023/02/01 13:12:07;;;;;;;1.40;1.30;;;7.60;99.90;;;;;;4978875;28;20533;-68
2023/02/01 13:14:49;;;;;;;4.72;1.10;;;7.60;99.90;;;;;;4978774;28;20274;-68
2023/02/01 13:17:21;;;;;;;4.78;2.08;;;7.50;99.90;;;;;;4979398;28;20310;-69
2023/02/01 13:20:06;;;;;;;3.50;1.50;;;7.40;99.90;;;;;;4976882;28;20630;-69
2023/02/01 13:22:41;;;;;;;2.45;1.27;;;7.30;99.90;;;;;;4958981;28;20219;-69
2023/02/01 13:25:37;;;;;;;4.50;1.00;;;7.30;99.90;;;;;;4958515;28;20218;-69
2023/02/01 13:28:28;;;;;;;1.35;1.30;;;7.30;99.90;;;;;;4959242;28;20172;-69
2023/02/01 13:31:18;;;;;;;2.28;1.73;;;7.30;99.90;;;;;;4958371;29;20197;-69
2023/02/01 13:34:10;;;;;;;1.90;1.60;;;7.30;99.90;;;;;;4957993;28;20635;-69
2023/02/01 13:36:47;;;;;;;2.03;1.40;;;7.40;99.90;;;;;;4974597;28;20223;-69
2023/02/01 13:39:39;;;;;;;3.80;1.50;;;7.40;99.90;;;;;;4976469;28;20233;-69
2023/02/01 13:42:13;;;;;;;3.70;1.70;;;7.40;99.90;;;;;;4984215;28;20314;-70
2023/02/01 13:44:49;;;;;;;4.47;1.80;;;7.40;99.90;;;;;;4977108;28;20589;-69
2023/02/01 13:47:34;;;;;;;1.58;1.48;;;7.40;99.90;;;;;;4977563;28;20170;-69
2023/02/01 13:50:33;;;;;;;1.80;1.65;;;7.40;99.90;;;;;;4977539;28;20184;-69
2023/02/01 13:53:11;;;;;;;3.22;0.90;;;7.40;99.90;;;;;;4975115;28;20319;-69
2023/02/01 13:55:39;;;;;;;4.18;1.70;;;7.40;99.90;;;;;;4975417;28;20385;-69
2023/02/01 13:58:28;;;;;;;3.92;1.50;;;7.40;99.90;;;;;;4975476;28;20172;-69
2023/02/01 14:01:23;;;;;;;1.42;1.33;;;7.50;99.90;;;;;;4975406;28;20176;-70
2023/02/01 14:03:50;;;;;;;2.05;1.30;;;7.50;99.90;;;;;;4975085;28;20270;-70
2023/02/01 14:06:29;;;;;;;2.03;1.65;;;7.60;99.90;;;;;;4975007;28;20295;-69
2023/02/01 14:09:16;;;;;;;2.22;2.08;;;7.60;99.90;;;;;;4976295;28;20631;-69
2023/02/01 14:11:41;;;;;;;1.63;1.02;;;7.60;99.90;;;;;;4977404;28;20183;-69
2023/02/01 14:14:16;;;;;;;1.63;1.07;;;7.60;99.90;;;;;;4976757;28;20202;-70
2023/02/01 14:17:02;;;;;;;4.10;2.70;;;7.50;99.90;;;;;;4975859;28;20176;-70
2023/02/01 14:19:32;;;;;;;3.03;1.30;;;7.40;99.90;;;;;;4985297;28;20188;-69
2023/02/01 14:22:01;;;;;;;4.05;1.45;;;7.40;99.90;;;;;;4975661;28;20211;-69
2023/02/01 14:24:33;;;;;;;1.33;1.23;;;7.40;99.90;;;;;;4975251;28;20286;-70
2023/02/01 14:27:21;;;;;;;3.55;1.42;;;7.50;99.90;;;;;;4975551;28;20675;-69
2023/02/01 14:30:07;;;;;;;2.00;1.80;;;7.40;99.90;;;;;;4976714;28;20553;-69
2023/02/01 14:32:42;;;;;;;1.50;1.40;;;7.40;99.90;;;;;;4976764;28;20179;-68
2023/02/01 14:35:21;;;;;;;2.22;1.33;;;7.40;99.90;;;;;;4976462;28;20198;-69
2023/02/01 14:37:51;;;;;;;1.42;1.35;;;7.40;99.90;;;;;;4976646;28;20176;-70
2023/02/01 14:40:22;;;;;;;1.25;1.15;;;7.40;99.90;;;;;;4976616;28;20533;-69
2023/02/01 14:42:53;;;;;;;1.63;1.17;;;7.30;99.90;;;;;;4976588;28;20574;-70
2023/02/01 14:45:19;;;;;;;3.15;1.50;;;7.40;99.90;;;;;;4975190;28;20210;-70
2023/02/01 14:47:47;;;;;;;1.35;1.23;;;7.40;99.90;;;;;;4976441;28;20178;-70
2023/02/01 14:50:33;;;;;;;2.33;1.75;;;7.40;99.90;;;;;;4976400;28;20264;-70
2023/02/01 14:53:10;;;;;;;5.47;2.42;;;7.40;99.90;;;;;;4976049;28;20172;-69
2023/02/01 14:55:47;;;;;;;3.08;1.40;;;7.40;99.90;;;;;;4976500;28;20245;-70
2023/02/01 14:58:31;;;;;;;7.20;1.45;;;7.50;99.90;;;;;;4976333;28;20251;-70
2023/02/01 15:00:59;;;;;;;4.05;1.60;;;7.50;99.90;;;;;;4976229;28;20168;-70
2023/02/01 15:03:38;;;;;;;1.38;1.10;;;7.50;99.90;;;;;;4975686;28;20588;-70
2023/02/01 15:06:05;;;;;;;6.35;1.77;;;7.50;99.90;;;;;;4976079;28;20274;-69
2023/02/01 15:08:35;;;;;;;1.10;1.02;;;7.40;99.90;;;;;;4976582;28;20601;-70
2023/02/01 15:11:06;;;;;;;1.25;1.25;;;7.40;99.90;;;;;;4976002;28;20199;-70
2023/02/01 15:13:33;;;;;;;5.47;1.38;;;7.40;99.90;;;;;;4975551;28;20176;-67
2023/02/01 15:16:04;;;;;;;1.48;1.33;;;7.40;99.90;;;;;;4975901;28;20588;-69
2023/02/01 15:18:30;;;;;;;1.40;1.30;;;7.40;99.90;;;;;;4975835;28;20170;-70
2023/02/01 15:20:58;;;;;;;0.75;0.75;;;7.40;99.90;;;;;;4974237;28;20247;-70
2023/02/01 15:23:25;;;;;;;1.38;1.27;;;7.30;99.90;;;;;;4975441;28;20196;-70
2023/02/01 15:25:50;;;;;;;2.92;1.90;;;7.30;99.90;;;;;;4975599;28;20192;-68
2023/02/01 15:28:17;;;;;;;1.80;1.60;;;7.30;99.90;;;;;;4975611;28;20178;-70
2023/02/01 15:31:02;;;;;;;2.90;1.58;;;7.30;99.90;;;;;;4975623;28;20168;-69
2023/02/01 15:33:29;;;;;;;1.30;1.17;;;7.30;99.90;;;;;;4973740;28;20202;-70
2023/02/01 15:36:07;;;;;;;2.97;1.55;;;7.30;99.90;;;;;;4975427;28;20167;-69
2023/02/01 15:38:43;;;;;;;2.17;1.52;;;7.30;99.90;;;;;;4975695;28;20174;-69
2023/02/01 15:41:18;;;;;;;1.83;1.50;;;7.30;99.90;;;;;;4975338;28;20223;-69
2023/02/01 15:43:47;;;;;;;1.48;1.27;;;7.30;99.90;;;;;;4974919;28;20173;-69
2023/02/01 15:46:22;;;;;;;1.33;1.23;;;7.30;99.90;;;;;;4975363;28;20171;-68
2023/02/01 15:48:53;;;;;;;2.55;1.23;;;7.30;99.90;;;;;;4975434;28;20181;-70
2023/02/01 15:51:24;;;;;;;4.63;1.33;;;7.30;99.90;;;;;;4975255;28;20187;-69
2023/02/01 15:53:54;;;;;;;1.88;1.20;;;7.30;99.90;;;;;;4974796;28;20203;-69
2023/02/01 15:56:30;;;;;;;3.90;1.20;;;7.20;99.90;;;;;;4974989;28;20491;-71
2023/02/01 15:58:58;;;;;;;3.17;1.50;;;7.20;99.90;;;;;;4974818;28;20748;-69
2023/02/01 16:01:25;;;;;;;4.20;1.63;;;7.20;99.90;;;;;;4974586;28;20255;-70
2023/02/01 16:04:16;;;;;;;8.40;2.22;;;7.20;99.90;;;;;;4974297;28;20195;-69
2023/02/01 16:07:01;;;;;;;2.10;2.00;;;7.20;99.90;;;;;;4974427;28;20183;-69
2023/02/01 16:09:54;;;;;;;1.00;1.00;;;7.20;99.90;;;;;;4974890;28;20225;-69
2023/02/01 16:12:30;;;;;;;1.90;1.80;;;7.20;99.90;;;;;;4974692;28;20251;-69
2023/02/01 16:14:56;;;;;;;1.08;1.00;;;7.20;99.90;;;;;;4974327;28;20688;-70
2023/02/01 16:17:21;;;;;;;1.60;1.50;;;7.20;99.90;;;;;;4973325;28;20191;-70
2023/02/01 16:19:47;;;;;;;6.33;1.80;;;7.20;99.90;;;;;;4974800;28;20257;-70
2023/02/01 16:22:12;;;;;;;3.43;1.80;;;7.20;99.90;;;;;;4974716;28;20199;-69
2023/02/01 16:24:38;;;;;;;3.60;1.30;;;7.20;99.90;;;;;;4974516;28;20531;-69
2023/02/01 16:27:06;;;;;;;1.80;1.30;;;7.10;99.90;;;;;;4974909;28;20175;-69
2023/02/01 16:29:33;;;;;;;1.40;1.30;;;7.10;99.90;;;;;;4974437;28;20183;-71
2023/02/01 16:31:59;;;;;;;2.40;1.30;;;7.10;99.90;;;;;;4974402;28;20250;-70
2023/02/01 16:34:25;;;;;;;3.25;1.50;;;7.10;99.90;;;;;;4972742;28;20206;-70
2023/02/01 16:36:51;;;;;;;1.00;0.83;;;7.10;99.90;;;;;;4974623;28;20510;-67
2023/02/01 16:39:18;;;;;;;8.10;1.83;;;7.10;99.90;;;;;;4974732;28;20812;-70
2023/02/01 16:41:45;;;;;;;2.45;1.10;;;7.10;99.90;;;;;;4975194;28;20293;-68
2023/02/01 16:44:11;;;;;;;1.75;1.27;;;7.10;99.90;;;;;;4977827;28;20213;-68
2023/02/01 16:46:40;;;;;;;3.17;2.13;;;7.10;99.90;;;;;;4979067;28;20183;-68
2023/02/01 16:49:15;;;;;;;2.72;1.35;;;7.10;99.90;;;;;;4975928;28;20172;-67
2023/02/01 16:51:41;;;;;;;3.45;1.60;;;7.10;99.90;;;;;;4977894;28;20179;-68
2023/02/01 16:54:08;;;;;;;3.17;1.47;;;7.10;99.90;;;;;;4980664;28;20203;-66
2023/02/01 16:56:35;;;;;;;4.25;2.30;;;7.10;99.90;;;;;;4976716;28;20179;-69
2023/02/01 16:59:01;;;;;;;6.35;2.03;;;7.10;99.90;;;;;;4974718;28;20607;-67
2023/02/01 17:01:27;;;;;;;7.00;1.35;;;7.00;99.90;;;;;;4974316;28;20206;-67
2023/02/01 17:03:53;;;;;;;1.58;1.42;;;7.00;99.90;;;;;;4974082;28;20218;-66
2023/02/01 17:06:21;;;;;;;3.93;0.93;;;6.90;99.90;;;;;;4973116;28;20192;-66
2023/02/01 17:08:53;;;;;;;4.35;1.48;;;6.90;99.90;;;;;;4974637;28;20179;-69
2023/02/01 17:11:19;;;;;;;3.63;2.03;;;6.80;99.90;;;;;;4974035;28;20198;-68
2023/02/01 17:13:45;;;;;;;2.77;2.60;;;6.70;99.90;;;;;;4973784;28;20247;-68
2023/02/01 17:16:30;;;;;;;4.18;2.75;;;6.70;99.90;;;;;;4974095;28;20445;-67
2023/02/01 17:19:04;;;;;;;7.97;1.98;;;6.70;99.90;;;;;;4973447;28;20235;-66
2023/02/01 17:21:44;;;;;;;4.13;1.77;;;6.60;99.90;;;;;;4973783;28;20201;-70
2023/02/01 17:24:14;;;;;;;2.63;1.60;;;6.60;99.90;;;;;;4972731;28;20192;-68
2023/02/01 17:26:40;;;;;;;4.50;1.35;;;6.60;99.90;;;;;;4973814;28;20245;-67
2023/02/01 17:29:05;;;;;;;2.85;1.35;;;6.60;99.90;;;;;;4974060;28;20174;-67
2023/02/01 17:31:35;;;;;;;9.50;2.70;;;6.60;99.90;;;;;;4973450;28;20687;-68
2023/02/01 17:34:00;;;;;;;3.55;1.60;;;6.60;99.90;;;;;;4972286;28;20223;-68
2023/02/01 17:36:26;;;;;;;3.30;1.40;;;6.70;99.90;;;;;;4972415;28;20269;-69
2023/02/01 17:38:51;;;;;;;1.40;1.30;;;6.70;99.90;;;;;;4974029;28;20638;-68
2023/02/01 17:41:17;;;;;;;1.80;1.63;;;6.80;99.90;;;;;;4973959;28;20286;-67
2023/02/01 17:43:43;;;;;;;1.53;1.27;;;6.80;99.90;;;;;;4974092;28;20179;-68
2023/02/01 17:46:14;;;;;;;1.33;1.23;;;6.90;99.90;;;;;;4975978;28;20183;-67
2023/02/01 17:48:40;;;;;;;2.03;1.60;;;6.90;99.90;;;;;;4977498;28;20181;-73
2023/02/01 17:51:18;;;;;;;4.00;1.27;;;6.90;99.90;;;;;;4976146;28;20172;-68
2023/02/01 17:53:44;;;;;;;9.23;1.63;;;7.00;99.90;;;;;;4976763;28;20179;-68
2023/02/01 17:56:19;;;;;;;3.70;1.70;;;7.00;99.90;;;;;;4976971;28;20176;-67
2023/02/01 17:58:46;;;;;;;3.30;2.58;;;7.00;99.90;;;;;;4977465;28;20177;-67
2023/02/01 18:01:15;;;;;;;1.60;1.50;;;7.00;99.90;;;;;;4973897;28;20200;-70
2023/02/01 18:03:41;;;;;;;5.75;1.33;;;7.00;99.90;;;;;;4967992;28;20181;-68
2023/02/01 18:06:14;;;;;;;2.13;1.20;;;7.00;99.90;;;;;;4963115;28;20553;-68
2023/02/01 18:08:41;;;;;;;1.98;1.80;;;7.00;99.90;;;;;;4967581;28;20833;-70
2023/02/01 18:11:13;;;;;;;4.57;1.67;;;7.00;99.90;;;;;;4966034;28;20178;-66
2023/02/01 18:13:39;;;;;;;5.05;1.27;;;7.00;99.90;;;;;;4976285;28;20183;-66
2023/02/01 18:16:05;;;;;;;2.20;1.90;;;7.00;99.90;;;;;;4976471;28;20172;-68
2023/02/01 18:18:32;;;;;;;1.92;1.73;;;7.00;99.90;;;;;;4976774;28;20909;-67
2023/02/01 18:20:58;;;;;;;1.17;1.05;;;7.00;99.90;;;;;;4964633;28;20214;-69
2023/02/01 18:23:24;;;;;;;2.73;1.77;;;7.00;99.90;;;;;;4963874;28;20206;-68
2023/02/01 18:25:51;;;;;;;2.90;1.30;;;7.00;99.90;;;;;;4976386;28;20738;-69
2023/02/01 18:28:17;;;;;;;5.38;1.77;;;7.10;99.90;;;;;;4976543;28;20608;-69
2023/02/01 18:30:49;;;;;;;2.88;1.95;;;7.00;99.90;;;;;;4970801;28;20241;-67